createdAt,value
2024-01-24T00:02:17.367Z,84.74
2024-01-24T00:05:05.627Z,84.71
2024-01-24T00:07:56.309Z,84.60
2024-01-24T00:10:53.421Z,85.11
2024-01-24T00:13:42.141Z,85.05
2024-01-24T00:16:50.854Z,85.14
2024-01-24T00:20:04.980Z,84.94
2024-01-24T00:23:12.619Z,85.43
2024-01-24T00:26:04.644Z,85.22
2024-01-24T00:28:51.954Z,84.80
2024-01-24T00:31:50.112Z,85.12
2024-01-24T00:34:57.572Z,84.97
2024-01-24T00:37:49.682Z,85.28
2024-01-24T00:40:19.669Z,85.33
2024-01-24T00:43:34.009Z,84.92
2024-01-24T00:46:15.097Z,85.43
2024-01-24T00:49:05.140Z,85.56
2024-01-24T00:52:30.965Z,85.65
2024-01-24T00:55:31.654Z,85.66
2024-01-24T00:58:19.542Z,85.33
2024-01-24T01:00:50.603Z,85.73
2024-01-24T01:03:40.168Z,85.72
2024-01-24T01:06:28.405Z,85.65
2024-01-24T01:08:57.674Z,85.79
2024-01-24T01:11:45.426Z,85.70
2024-01-24T01:14:12.923Z,85.94
2024-01-24T01:16:44.599Z,85.45
2024-01-24T01:19:13.720Z,85.71
2024-01-24T01:21:42.437Z,85.54
2024-01-24T01:24:11.472Z,85.97
2024-01-24T01:26:38.888Z,85.99
2024-01-24T01:29:10.914Z,86.09
2024-01-24T01:31:38.331Z,86.14
2024-01-24T01:34:05.777Z,86.17
2024-01-24T01:36:33.499Z,86.02
2024-01-24T01:39:00.997Z,86.28
2024-01-24T01:41:28.919Z,86.07
2024-01-24T01:43:56.331Z,86.39
2024-01-24T01:46:27.388Z,86.35
2024-01-24T01:48:58.488Z,86.08
2024-01-24T01:51:28.259Z,86.38
2024-01-24T01:53:57.450Z,86.44
2024-01-24T01:56:26.653Z,86.30
2024-01-24T01:58:54.704Z,86.43
2024-01-24T02:04:18.441Z,86.45
2024-01-24T02:06:46.178Z,86.57
2024-01-24T02:09:13.808Z,86.62
2024-01-24T02:11:45.326Z,86.57
2024-01-24T02:14:13.952Z,86.92
2024-01-24T02:16:41.552Z,86.39
2024-01-24T02:19:09.114Z,86.64
2024-01-24T02:21:37.652Z,86.56
2024-01-24T02:24:13.913Z,87.19
2024-01-24T02:26:41.049Z,87.10
2024-01-24T02:29:08.283Z,87.15
2024-01-24T02:31:35.836Z,87.23
2024-01-24T02:34:03.519Z,86.78
2024-01-24T02:36:30.918Z,87.47
2024-01-24T02:38:58.999Z,87.09
2024-01-24T02:41:26.674Z,87.17
2024-01-24T02:43:54.010Z,87.17
2024-01-24T02:46:21.399Z,87.51
2024-01-24T02:48:48.642Z,87.81
2024-01-24T02:51:27.954Z,87.62
2024-01-24T02:53:55.398Z,87.58
2024-01-24T02:56:22.917Z,87.35
2024-01-24T02:58:50.386Z,87.28
2024-01-24T03:01:17.912Z,87.43
2024-01-24T03:03:46.051Z,87.23
2024-01-24T03:06:13.521Z,87.29
2024-01-24T03:08:58.885Z,87.23
2024-01-24T03:11:26.600Z,87.39
2024-01-24T03:13:53.898Z,87.51
2024-01-24T03:16:21.309Z,87.66
2024-01-24T03:18:49.685Z,87.49
2024-01-24T03:21:19.228Z,87.66
2024-01-24T03:23:46.533Z,87.57
2024-01-24T03:26:16.925Z,87.81
2024-01-24T03:28:44.523Z,87.52
2024-01-24T03:31:12.156Z,87.60
2024-01-24T03:33:39.407Z,87.96
2024-01-24T03:36:06.836Z,87.53
2024-01-24T03:38:34.788Z,87.58
2024-01-24T03:41:02.288Z,87.57
2024-01-24T03:43:29.590Z,87.78
2024-01-24T03:45:57.216Z,87.48
2024-01-24T03:48:24.899Z,87.53
2024-01-24T03:50:53.438Z,87.29
2024-01-24T03:53:20.787Z,87.26
2024-01-24T03:55:48.061Z,87.17
2024-01-24T03:58:15.619Z,87.10
2024-01-24T04:00:42.998Z,87.18
2024-01-24T04:03:10.392Z,87.09
2024-01-24T04:05:37.715Z,86.92
2024-01-24T04:08:05.465Z,87.28
2024-01-24T04:10:33.048Z,87.18
2024-01-24T04:13:00.268Z,86.99
2024-01-24T04:15:28.729Z,86.80
2024-01-24T04:17:56.915Z,87.39
2024-01-24T04:20:24.244Z,87.04
2024-01-24T04:22:51.403Z,87.20
2024-01-24T04:25:19.375Z,86.90
2024-01-24T04:27:49.608Z,87.12
2024-01-24T04:30:17.226Z,86.96
2024-01-24T04:32:45.401Z,86.86
2024-01-24T04:35:13.551Z,86.89
2024-01-24T04:37:41.376Z,86.58
2024-01-24T04:40:09.431Z,86.97
2024-01-24T04:42:37.180Z,86.72
2024-01-24T04:45:04.743Z,86.73
2024-01-24T04:47:32.313Z,86.88
2024-01-24T04:50:00.007Z,86.82
2024-01-24T04:52:27.228Z,86.57
2024-01-24T04:54:54.524Z,86.65
2024-01-24T04:57:21.761Z,86.41
2024-01-24T04:59:55.749Z,86.95
2024-01-24T05:02:24.833Z,86.91
2024-01-24T05:04:52.165Z,86.45
2024-01-24T05:07:19.658Z,86.36
2024-01-24T05:09:47.113Z,86.42
2024-01-24T05:12:14.676Z,86.80
2024-01-24T05:14:42.084Z,86.76
2024-01-24T05:17:09.295Z,86.46
2024-01-24T05:19:37.274Z,86.61
2024-01-24T05:22:04.724Z,86.74
2024-01-24T05:24:32.107Z,86.57
2024-01-24T05:26:59.405Z,86.84
2024-01-24T05:29:27.136Z,86.41
2024-01-24T05:31:54.670Z,86.55
2024-01-24T05:34:21.816Z,86.47
2024-01-24T05:37:04.286Z,86.37
2024-01-24T05:39:32.425Z,86.56
2024-01-24T05:42:01.204Z,86.80
2024-01-24T05:44:32.730Z,87.07
2024-01-24T05:47:00.689Z,87.44
2024-01-24T05:49:31.398Z,87.61
2024-01-24T05:52:10.301Z,87.91
2024-01-24T05:54:57.804Z,88.25
2024-01-24T05:57:26.397Z,88.02
2024-01-24T05:59:53.741Z,88.10
2024-01-24T06:02:21.422Z,88.53
2024-01-24T06:04:49.959Z,88.24
2024-01-24T06:07:20.752Z,88.39
2024-01-24T08:04:34.847Z,92.28
2024-01-24T08:08:43.909Z,92.26
2024-01-24T08:12:38.010Z,92.14
2024-01-24T08:17:00.754Z,92.60
2024-01-24T08:24:20.605Z,92.70
2024-01-24T08:28:12.582Z,92.64
2024-01-24T08:32:03.282Z,93.09
2024-01-24T08:35:53.182Z,92.79
2024-01-24T08:39:41.088Z,92.99
2024-01-24T08:43:28.831Z,93.37
2024-01-24T08:47:16.565Z,93.83
2024-01-24T08:51:04.271Z,93.57
2024-01-24T08:54:55.034Z,93.60
2024-01-24T08:58:42.868Z,93.62
2024-01-24T09:01:53.328Z,93.94
2024-01-24T09:05:43.470Z,93.82
2024-01-24T09:09:40.959Z,94.19
2024-01-24T09:13:33.383Z,94.01
2024-01-24T09:17:22.018Z,93.68
2024-01-24T09:21:11.522Z,93.83
2024-01-24T09:24:59.577Z,94.32
2024-01-24T09:28:47.065Z,94.48
2024-01-24T09:32:34.962Z,94.25
2024-01-24T09:36:22.750Z,94.91
2024-01-24T09:40:12.084Z,94.37
2024-01-24T09:43:59.760Z,94.92
2024-01-24T09:47:47.794Z,94.85
2024-01-24T09:51:36.343Z,94.82
2024-01-24T09:55:25.630Z,95.38
2024-01-24T09:59:13.437Z,95.52
2024-01-24T10:03:01.365Z,95.29
2024-01-24T10:06:52.186Z,95.73
2024-01-24T10:10:42.605Z,96.00
2024-01-24T10:14:32.601Z,96.42
2024-01-24T10:18:23.378Z,96.05
2024-01-24T10:22:11.421Z,95.98
2024-01-24T10:26:00.218Z,96.29
2024-01-24T10:29:48.105Z,95.81
2024-01-24T10:33:36.167Z,96.22
2024-01-24T10:37:25.566Z,95.82
2024-01-24T10:41:16.101Z,96.27
2024-01-24T10:45:09.656Z,96.55
2024-01-24T10:48:58.411Z,96.36
2024-01-24T10:52:47.535Z,96.12
2024-01-24T10:56:35.076Z,96.31
2024-01-24T11:00:26.946Z,96.10
2024-01-24T11:04:14.719Z,95.76
2024-01-24T11:08:05.376Z,96.62
2024-01-24T11:11:53.864Z,95.99
2024-01-24T11:15:44.875Z,96.18
2024-01-24T11:19:35.420Z,95.78
2024-01-24T11:23:23.272Z,96.16
2024-01-24T11:27:12.924Z,96.10
2024-01-24T11:30:40.822Z,96.08
2024-01-24T11:34:27.751Z,96.24
2024-01-24T11:38:26.158Z,96.06
2024-01-24T11:42:12.349Z,96.07
2024-01-24T11:46:18.544Z,95.74
2024-01-24T11:50:11.113Z,95.77
2024-01-24T11:54:02.027Z,95.43
2024-01-24T11:57:50.106Z,95.86
2024-01-24T12:01:02.394Z,95.43
2024-01-24T12:04:51.279Z,95.33
2024-01-24T12:08:39.111Z,95.44
2024-01-24T12:12:28.347Z,95.75
2024-01-24T12:16:16.059Z,96.09
2024-01-24T12:20:04.426Z,95.91
2024-01-24T12:23:55.301Z,95.96
2024-01-24T12:27:43.269Z,95.25
2024-01-24T12:31:32.377Z,95.55
2024-01-24T12:35:23.962Z,95.51
2024-01-24T12:39:10.531Z,95.10
2024-01-24T12:42:58.400Z,95.25
2024-01-24T12:46:48.899Z,95.07
2024-01-24T12:50:36.736Z,94.84
2024-01-24T12:54:24.324Z,94.42
2024-01-24T12:58:12.292Z,94.51
2024-01-24T13:01:59.984Z,94.30
2024-01-24T13:05:51.203Z,94.47
2024-01-24T13:09:40.112Z,94.62
2024-01-24T13:13:24.376Z,94.14
2024-01-24T13:17:12.108Z,94.33
2024-01-24T13:21:00.259Z,94.05
2024-01-24T13:24:53.773Z,93.58
2024-01-24T13:28:38.052Z,93.92
2024-01-24T13:32:28.051Z,93.47
2024-01-24T13:36:17.025Z,93.64
2024-01-24T13:40:05.095Z,94.20
2024-01-24T13:43:54.737Z,93.73
2024-01-24T13:47:22.073Z,93.66
2024-01-24T13:51:09.952Z,93.86
2024-01-24T13:54:57.688Z,94.72
2024-01-24T13:58:47.149Z,94.34
2024-01-24T14:06:21.803Z,94.69
2024-01-24T14:10:09.728Z,94.37
2024-01-24T14:13:57.308Z,94.59
2024-01-24T14:17:45.070Z,94.27
2024-01-24T14:21:32.828Z,94.23
2024-01-24T14:25:20.594Z,94.15
2024-01-24T14:29:08.252Z,93.92
2024-01-24T14:32:56.578Z,93.73
2024-01-24T14:36:49.697Z,93.75
2024-01-24T14:40:38.034Z,93.68
2024-01-24T14:44:25.532Z,93.98
2024-01-24T14:48:13.485Z,93.81
2024-01-24T14:52:03.990Z,93.80
2024-01-24T14:55:51.678Z,93.47
2024-01-24T14:59:42.937Z,93.48
2024-01-24T15:03:30.928Z,93.43
2024-01-24T15:07:18.476Z,93.47
2024-01-24T15:11:06.289Z,93.40
2024-01-24T15:14:53.899Z,93.51
2024-01-24T15:18:41.709Z,93.28
2024-01-24T15:22:30.564Z,93.16
2024-01-24T15:26:18.343Z,92.87
2024-01-24T15:30:07.274Z,93.06
2024-01-24T15:33:54.595Z,92.82
2024-01-24T15:37:42.264Z,92.84
2024-01-24T15:41:30.479Z,92.76
2024-01-24T15:45:18.116Z,92.58
2024-01-24T15:49:06.576Z,92.63
2024-01-24T15:52:54.454Z,92.62
2024-01-24T15:56:44.990Z,92.53
2024-01-24T16:00:33.531Z,92.35
2024-01-24T16:04:20.699Z,92.21
2024-01-24T16:08:08.318Z,92.06
2024-01-24T16:11:57.409Z,92.13
2024-01-24T16:15:46.369Z,92.14
2024-01-24T16:19:34.460Z,92.15
2024-01-24T16:23:21.879Z,91.88
2024-01-24T16:27:09.947Z,91.95
2024-01-24T16:34:42.494Z,91.87
2024-01-24T16:38:30.206Z,91.80
2024-01-24T16:42:18.142Z,91.87
2024-01-24T16:46:06.700Z,91.69
2024-01-24T16:49:54.485Z,91.78
2024-01-24T16:53:41.999Z,91.42
2024-01-24T16:57:29.802Z,91.37
2024-01-24T17:01:17.633Z,91.16
2024-01-24T17:05:05.130Z,90.98
2024-01-24T17:08:52.655Z,90.81
2024-01-24T17:12:40.350Z,90.76
2024-01-24T17:16:28.449Z,90.35
2024-01-24T17:20:16.520Z,90.51
2024-01-24T17:24:04.776Z,90.17
2024-01-24T17:27:52.752Z,90.05
2024-01-24T17:31:40.687Z,89.87
2024-01-24T17:35:28.560Z,89.88
2024-01-24T17:39:18.962Z,89.38
2024-01-24T17:43:07.343Z,89.07
2024-01-24T17:46:55.080Z,88.75
2024-01-24T17:50:43.373Z,88.67
2024-01-24T17:54:35.223Z,87.84
2024-01-24T17:58:22.632Z,87.53
2024-01-24T18:02:10.520Z,87.48
2024-01-24T18:05:58.782Z,87.04
2024-01-24T18:09:46.681Z,86.62
2024-01-24T18:13:34.737Z,85.51
2024-01-24T18:17:23.812Z,86.12
2024-01-24T18:20:13.861Z,85.64
2024-01-24T18:22:45.358Z,85.60
2024-01-24T18:25:33.388Z,85.87
2024-01-24T18:28:00.819Z,84.88
2024-01-24T18:30:34.687Z,85.01
2024-01-24T18:33:20.565Z,85.25
2024-01-24T18:36:11.172Z,85.08
2024-01-24T18:38:54.219Z,85.14
2024-01-24T18:42:41.483Z,84.98
2024-01-24T18:46:29.230Z,84.99
2024-01-24T18:50:19.612Z,84.16
2024-01-24T18:54:07.168Z,84.01
2024-01-24T18:57:58.051Z,83.93
2024-01-24T19:01:48.657Z,83.76
2024-01-24T19:05:38.671Z,84.06
2024-01-24T19:09:23.564Z,83.43
2024-01-24T19:12:51.914Z,82.69
2024-01-24T19:16:38.858Z,83.13
2024-01-24T19:20:29.374Z,82.91
2024-01-24T19:24:18.685Z,83.23
2024-01-24T19:28:06.984Z,83.22
2024-01-24T19:31:55.820Z,82.60
2024-01-24T19:35:53.519Z,82.71
2024-01-24T19:39:41.377Z,82.36
2024-01-24T19:43:32.075Z,82.45
2024-01-24T19:47:19.991Z,82.13
2024-01-24T19:51:09.258Z,81.80
2024-01-24T19:54:56.961Z,81.47
2024-01-24T19:58:44.954Z,81.61
2024-01-24T20:02:32.615Z,81.20
2024-01-24T20:06:20.878Z,81.60
2024-01-24T20:10:09.689Z,81.19
2024-01-24T20:13:57.605Z,81.30
2024-01-24T20:17:45.634Z,81.17
2024-01-24T20:21:33.873Z,80.44
2024-01-24T20:25:24.489Z,80.67
2024-01-24T20:29:11.843Z,80.66
2024-01-24T20:33:04.145Z,80.17
2024-01-24T20:40:38.946Z,79.27
2024-01-24T20:44:27.335Z,79.64
2024-01-24T20:48:16.583Z,79.78
2024-01-24T20:55:49.352Z,79.45
2024-01-24T20:59:37.227Z,79.68
2024-01-24T21:03:25.855Z,79.46
2024-01-24T21:07:14.479Z,79.68
2024-01-24T21:11:04.135Z,79.48
2024-01-24T21:14:50.312Z,79.67
2024-01-24T21:18:39.075Z,79.38
2024-01-24T21:22:26.275Z,79.26
2024-01-24T21:30:01.952Z,79.39
2024-01-24T21:33:49.530Z,79.19
2024-01-24T21:37:38.595Z,79.53
2024-01-24T21:41:26.334Z,80.02
2024-01-24T21:45:08.956Z,80.72
2024-01-24T21:47:37.677Z,81.04
2024-01-24T21:50:07.574Z,81.06
2024-01-24T21:52:35.183Z,80.97
2024-01-24T21:55:03.089Z,80.85
2024-01-24T21:57:53.781Z,80.93
2024-01-24T22:00:21.392Z,80.92
2024-01-24T22:02:53.943Z,80.91
2024-01-24T22:05:22.925Z,80.86
2024-01-24T22:07:51.578Z,80.94
2024-01-24T22:10:19.106Z,80.71
2024-01-24T22:12:53.651Z,80.77
2024-01-24T22:15:21.288Z,80.51
2024-01-24T22:17:48.492Z,80.52
2024-01-24T22:20:15.997Z,80.54
2024-01-24T22:25:16.523Z,79.85
2024-01-24T22:28:42.481Z,80.09
2024-01-24T22:31:34.626Z,79.93
2024-01-24T22:34:25.326Z,80.01
2024-01-24T22:37:01.038Z,79.69
2024-01-24T22:39:29.622Z,79.61
2024-01-24T22:42:19.938Z,79.69
2024-01-24T22:45:17.311Z,79.39
2024-01-24T22:47:53.993Z,79.25
2024-01-24T22:50:29.451Z,78.12
2024-01-24T22:52:57.136Z,78.03
2024-01-24T22:55:45.029Z,78.06
2024-01-24T22:58:17.367Z,77.81
2024-01-24T23:01:08.599Z,77.30
2024-01-24T23:03:54.194Z,77.55
2024-01-24T23:09:42.005Z,77.22
2024-01-24T23:12:10.612Z,76.99
2024-01-24T23:14:58.210Z,77.02
2024-01-24T23:20:50.950Z,76.44
2024-01-24T23:23:36.924Z,76.90
2024-01-24T23:26:22.830Z,76.68
2024-01-24T23:29:29.906Z,76.63
2024-01-24T23:31:59.010Z,76.35
2024-01-24T23:34:41.610Z,76.18
2024-01-24T23:37:36.510Z,76.36
2024-01-24T23:43:15.068Z,76.04
2024-01-24T23:46:58.847Z,75.99
2024-01-24T23:50:19.204Z,76.27
2024-01-24T23:56:10.651Z,75.74
